createdAt,value
2019-03-29T00:02:22.870Z,8.73
2019-03-29T00:04:53.252Z,9.80
2019-03-29T00:07:39.498Z,8.40
2019-03-29T00:10:04.780Z,8.73
2019-03-29T00:12:35.548Z,9.47
2019-03-29T00:15:08.383Z,9.10
2019-03-29T00:17:38.843Z,10.53
2019-03-29T00:20:10.265Z,9.40
2019-03-29T00:22:40.930Z,9.63
2019-03-29T00:25:27.848Z,8.97
2019-03-29T00:27:54.919Z,9.67
2019-03-29T00:30:30.274Z,9.70
2019-03-29T00:32:59.278Z,9.40
2019-03-29T00:35:34.410Z,9.77
2019-03-29T00:38:05.109Z,9.97
2019-03-29T00:40:35.858Z,9.30
2019-03-29T00:43:06.540Z,10.37
2019-03-29T00:45:36.376Z,10.00
2019-03-29T00:48:08.232Z,9.07
2019-03-29T00:50:37.910Z,9.97
2019-03-29T00:53:09.150Z,11.00
2019-03-29T00:55:39.865Z,11.23
2019-03-29T00:58:10.014Z,10.57
2019-03-29T01:00:41.535Z,11.97
2019-03-29T01:03:11.907Z,11.63
2019-03-29T01:05:42.266Z,11.33
2019-03-29T01:08:12.283Z,11.70
2019-03-29T01:10:42.944Z,11.40
2019-03-29T01:13:12.743Z,12.98
2019-03-29T01:15:42.679Z,13.47
2019-03-29T01:18:12.382Z,10.43
2019-03-29T01:20:44.338Z,12.40
2019-03-29T01:23:14.545Z,12.20
2019-03-29T01:25:45.002Z,12.87
2019-03-29T01:28:14.908Z,13.33
2019-03-29T01:30:45.129Z,13.47
2019-03-29T01:33:15.119Z,12.03
2019-03-29T01:35:57.647Z,13.80
2019-03-29T01:38:27.795Z,13.90
2019-03-29T01:40:58.175Z,12.40
2019-03-29T01:43:29.105Z,13.43
2019-03-29T01:46:04.334Z,15.73
2019-03-29T01:48:37.036Z,13.27
2019-03-29T01:51:32.665Z,13.10
2019-03-29T01:53:58.523Z,14.33
2019-03-29T01:56:28.762Z,13.27
2019-03-29T01:58:59.163Z,16.83
2019-03-29T02:01:29.475Z,14.37
2019-03-29T02:04:05.608Z,15.37
2019-03-29T02:06:33.993Z,14.43
2019-03-29T02:09:06.523Z,13.03
2019-03-29T02:11:38.643Z,16.67
2019-03-29T02:14:10.046Z,15.47
2019-03-29T02:16:41.034Z,16.40
2019-03-29T02:19:11.863Z,16.03
2019-03-29T02:21:43.583Z,15.30
2019-03-29T02:24:13.702Z,14.33
2019-03-29T02:26:43.691Z,15.97
2019-03-29T02:29:13.764Z,16.13
2019-03-29T02:31:43.969Z,14.63
2019-03-29T02:34:30.011Z,16.20
2019-03-29T02:37:01.888Z,18.37
2019-03-29T02:39:32.428Z,15.57
2019-03-29T02:42:03.778Z,17.73
2019-03-29T02:44:34.821Z,18.23
2019-03-29T02:47:04.746Z,18.40
2019-03-29T02:49:34.264Z,17.50
2019-03-29T02:52:05.132Z,15.07
2019-03-29T02:54:35.325Z,16.70
2019-03-29T02:57:05.049Z,13.77
2019-03-29T02:59:35.589Z,14.43
2019-03-29T03:02:05.611Z,16.23
2019-03-29T03:04:37.366Z,15.20
2019-03-29T03:07:07.727Z,16.23
2019-03-29T03:09:38.527Z,16.50
2019-03-29T03:12:08.705Z,15.67
2019-03-29T03:14:39.198Z,18.30
2019-03-29T03:17:09.997Z,17.17
2019-03-29T03:19:41.713Z,16.63
2019-03-29T03:22:13.622Z,16.67
2019-03-29T03:24:45.301Z,16.03
2019-03-29T03:27:15.413Z,18.33
2019-03-29T03:29:48.047Z,18.23
2019-03-29T03:32:17.297Z,19.23
2019-03-29T03:34:47.991Z,17.50
2019-03-29T03:37:18.670Z,17.90
2019-03-29T03:39:48.775Z,20.13
2019-03-29T03:42:19.003Z,17.10
2019-03-29T03:44:49.419Z,18.67
2019-03-29T03:47:19.846Z,19.30
2019-03-29T03:49:51.744Z,16.83
2019-03-29T03:52:22.356Z,17.23
2019-03-29T03:54:53.940Z,19.20
2019-03-29T03:57:24.983Z,18.70
2019-03-29T03:59:56.331Z,20.10
2019-03-29T04:02:27.143Z,18.67
2019-03-29T04:04:57.958Z,20.43
2019-03-29T04:07:29.425Z,17.47
2019-03-29T04:10:00.600Z,18.13
2019-03-29T04:12:31.750Z,19.53
2019-03-29T04:15:02.544Z,19.20
2019-03-29T04:17:32.347Z,20.10
2019-03-29T04:20:02.299Z,19.50
2019-03-29T04:22:32.419Z,15.90
2019-03-29T04:25:02.818Z,21.10
2019-03-29T04:27:33.339Z,20.83
2019-03-29T04:30:03.401Z,18.73
2019-03-29T04:32:33.800Z,21.20
2019-03-29T04:35:04.350Z,20.33
2019-03-29T04:37:37.500Z,19.97
2019-03-29T04:40:09.006Z,18.47
2019-03-29T04:42:49.195Z,18.70
2019-03-29T04:45:19.315Z,19.33
2019-03-29T04:47:51.588Z,20.27
2019-03-29T04:50:27.173Z,19.10
2019-03-29T04:52:57.184Z,19.77
2019-03-29T04:55:27.351Z,19.57
2019-03-29T04:57:56.966Z,24.53
2019-03-29T05:00:26.751Z,20.50
2019-03-29T05:02:57.919Z,20.67
2019-03-29T05:05:27.977Z,20.77
2019-03-29T05:07:58.613Z,20.83
2019-03-29T05:10:34.557Z,19.47
2019-03-29T05:13:04.515Z,21.27
2019-03-29T05:15:35.540Z,23.73
2019-03-29T05:18:07.805Z,20.97
2019-03-29T05:20:38.781Z,22.87
2019-03-29T05:23:11.872Z,21.80
2019-03-29T05:25:42.297Z,20.67
2019-03-29T05:28:13.713Z,21.20
2019-03-29T05:30:44.794Z,21.17
2019-03-29T05:33:15.212Z,19.63
2019-03-29T05:35:45.527Z,22.57
2019-03-29T05:38:15.726Z,23.87
2019-03-29T05:40:46.028Z,20.00
2019-03-29T05:43:16.817Z,22.30
2019-03-29T05:45:48.138Z,19.17
2019-03-29T05:48:20.273Z,22.57
2019-03-29T05:50:50.267Z,19.17
2019-03-29T05:53:20.621Z,17.63
2019-03-29T05:55:51.423Z,19.90
2019-03-29T05:58:21.607Z,22.07
2019-03-29T06:00:54.394Z,21.77
2019-03-29T06:03:27.737Z,21.40
2019-03-29T06:05:59.976Z,17.63
2019-03-29T06:08:30.329Z,22.40
2019-03-29T06:11:04.630Z,21.20
2019-03-29T06:13:37.390Z,21.47
2019-03-29T06:17:03.763Z,21.60
2019-03-29T06:19:08.572Z,21.40
2019-03-29T06:21:40.747Z,20.47
2019-03-29T06:24:10.890Z,21.97
2019-03-29T06:26:45.908Z,22.10
2019-03-29T06:29:16.253Z,20.50
2019-03-29T06:31:46.885Z,19.70
2019-03-29T06:34:17.342Z,22.50
2019-03-29T06:36:49.071Z,17.47
2019-03-29T06:39:21.401Z,20.73
2019-03-29T06:41:53.102Z,20.17
2019-03-29T06:44:24.055Z,19.60
2019-03-29T06:46:55.231Z,17.43
2019-03-29T06:49:25.912Z,22.90
2019-03-29T06:51:56.954Z,20.75
2019-03-29T06:54:28.788Z,22.42
2019-03-29T06:56:59.482Z,22.93
2019-03-29T06:59:31.944Z,21.60
2019-03-29T07:02:01.738Z,20.90
2019-03-29T07:04:34.075Z,20.40
2019-03-29T07:07:09.190Z,20.10
2019-03-29T07:09:41.717Z,21.48
2019-03-29T07:12:14.988Z,19.75
2019-03-29T07:14:50.034Z,20.50
2019-03-29T07:17:27.233Z,20.85
2019-03-29T07:20:03.415Z,21.37
2019-03-29T07:22:34.762Z,22.32
2019-03-29T07:25:07.000Z,20.30
2019-03-29T07:27:46.806Z,20.92
2019-03-29T07:30:13.268Z,19.63
2019-03-29T07:32:43.849Z,19.53
2019-03-29T07:35:16.059Z,21.87
2019-03-29T07:37:47.036Z,21.57
2019-03-29T07:40:19.034Z,21.23
2019-03-29T07:42:51.541Z,20.67
2019-03-29T07:45:22.968Z,20.47
2019-03-29T07:47:55.980Z,21.40
2019-03-29T07:50:26.589Z,20.43
2019-03-29T07:52:58.798Z,19.60
2019-03-29T07:55:31.861Z,21.70
2019-03-29T07:58:04.238Z,20.30
2019-03-29T08:00:34.791Z,20.47
2019-03-29T08:03:06.734Z,19.83
2019-03-29T08:05:38.041Z,20.27
2019-03-29T08:08:22.426Z,20.05
2019-03-29T08:10:41.446Z,16.97
2019-03-29T08:13:12.220Z,20.20
2019-03-29T08:15:43.615Z,16.80
2019-03-29T08:20:47.158Z,19.45
2019-03-29T08:25:48.321Z,17.27
2019-03-29T08:31:14.832Z,17.30
2019-03-29T08:33:44.870Z,17.80
2019-03-29T08:36:15.062Z,17.27
2019-03-29T08:41:15.267Z,15.20
2019-03-29T08:43:46.306Z,15.33
2019-03-29T08:46:17.150Z,16.27
2019-03-29T09:06:12.835Z,14.10
2019-03-29T09:18:41.495Z,13.80
2019-03-29T09:21:25.107Z,14.07
2019-03-29T09:23:57.573Z,15.35
2019-03-29T09:26:32.577Z,15.03
2019-03-29T09:29:03.233Z,14.50
2019-03-29T09:31:58.844Z,14.43
2019-03-29T09:34:29.069Z,15.03
2019-03-29T09:37:00.074Z,14.75
2019-03-29T09:39:33.928Z,14.03
2019-03-29T09:42:09.587Z,14.28
2019-03-29T09:44:40.083Z,13.78
2019-03-29T09:47:10.127Z,14.20
2019-03-29T09:49:40.321Z,13.83
2019-03-29T09:52:10.874Z,13.60
2019-03-29T09:54:43.044Z,12.55
2019-03-29T09:57:15.619Z,12.60
2019-03-29T09:59:45.320Z,12.47
2019-03-29T10:02:15.698Z,11.90
2019-03-29T10:04:46.123Z,12.10
2019-03-29T10:07:16.290Z,11.40
2019-03-29T10:09:46.603Z,11.87
2019-03-29T10:14:47.170Z,11.70
2019-03-29T10:17:17.156Z,12.40
2019-03-29T10:19:49.931Z,12.20
2019-03-29T10:22:20.707Z,12.33
2019-03-29T10:24:51.475Z,11.80
2019-03-29T10:27:22.163Z,11.45
2019-03-29T10:29:53.737Z,10.88
2019-03-29T10:32:23.757Z,11.47
2019-03-29T10:35:15.232Z,11.97
2019-03-29T10:37:51.046Z,12.03
2019-03-29T10:40:22.795Z,12.33
2019-03-29T10:42:58.205Z,13.10
2019-03-29T10:45:24.921Z,12.43
2019-03-29T10:47:57.393Z,10.93
2019-03-29T10:50:29.112Z,8.43
2019-03-29T10:52:59.392Z,9.30
2019-03-29T10:55:30.526Z,14.23
2019-03-29T10:58:00.489Z,10.53
2019-03-29T11:00:37.908Z,9.83
2019-03-29T11:05:38.720Z,8.50
2019-03-29T11:08:11.570Z,8.17
2019-03-29T11:13:14.135Z,10.40
2019-03-29T11:15:44.146Z,7.87
2019-03-29T11:18:14.250Z,8.60
2019-03-29T11:20:46.016Z,8.63
2019-03-29T11:23:19.264Z,11.47
2019-03-29T11:25:52.187Z,10.70
2019-03-29T11:28:23.142Z,10.80
2019-03-29T11:30:52.847Z,8.90
2019-03-29T11:33:24.990Z,8.47
2019-03-29T11:35:56.503Z,8.87
2019-03-29T11:38:29.302Z,8.80
2019-03-29T11:40:59.196Z,8.30
2019-03-29T11:43:30.367Z,8.67
2019-03-29T11:46:00.593Z,9.00
2019-03-29T11:48:33.680Z,10.30
2019-03-29T11:51:18.704Z,9.37
2019-03-29T11:53:38.400Z,9.47
2019-03-29T11:56:10.927Z,9.63
2019-03-29T11:58:41.088Z,8.53
2019-03-29T12:01:12.296Z,9.73
2019-03-29T12:03:42.680Z,10.30
2019-03-29T12:06:13.883Z,10.13
2019-03-29T12:08:47.695Z,12.13
2019-03-29T12:11:18.153Z,12.98
2019-03-29T12:13:47.855Z,11.27
2019-03-29T12:16:18.760Z,11.10
2019-03-29T12:18:50.569Z,10.87
2019-03-29T12:21:23.211Z,12.20
2019-03-29T12:23:58.531Z,13.50
2019-03-29T12:26:29.483Z,13.03
2019-03-29T12:28:59.972Z,12.20
2019-03-29T12:31:31.650Z,12.40
2019-03-29T12:34:01.411Z,11.93
2019-03-29T12:36:31.188Z,12.43
2019-03-29T12:39:02.918Z,13.50
2019-03-29T12:41:33.002Z,14.10
2019-03-29T12:44:03.021Z,13.48
2019-03-29T12:46:32.990Z,12.98
2019-03-29T12:49:03.009Z,13.40
2019-03-29T12:51:33.144Z,11.88
2019-03-29T12:54:03.248Z,13.05
2019-03-29T12:56:33.228Z,11.97
2019-03-29T12:59:03.120Z,12.82
2019-03-29T13:01:39.617Z,12.82
2019-03-29T13:04:09.617Z,11.17
2019-03-29T13:11:41.856Z,14.10
2019-03-29T13:14:12.333Z,12.77
2019-03-29T13:16:44.066Z,10.50
2019-03-29T13:19:19.479Z,10.07
2019-03-29T13:21:49.593Z,11.70
2019-03-29T13:24:21.096Z,10.77
2019-03-29T13:31:52.802Z,9.90
2019-03-29T13:34:23.228Z,12.00
2019-03-29T13:36:54.101Z,10.87
2019-03-29T13:44:25.399Z,11.77
2019-03-29T13:46:55.525Z,12.60
2019-03-29T13:49:25.904Z,13.43
2019-03-29T13:51:56.726Z,13.08
2019-03-29T13:54:27.338Z,13.72
2019-03-29T13:56:57.594Z,12.55
2019-03-29T13:59:31.685Z,12.80
2019-03-29T14:02:00.031Z,13.68
2019-03-29T14:04:29.789Z,14.10
2019-03-29T14:07:00.360Z,13.20
2019-03-29T14:09:33.300Z,12.78
2019-03-29T14:12:06.026Z,12.60
2019-03-29T14:32:29.477Z,12.40
2019-03-29T14:35:00.365Z,11.03
2019-03-29T14:37:31.071Z,11.30
2019-03-29T14:40:04.109Z,12.13
2019-03-29T14:42:34.502Z,14.00
2019-03-29T14:45:08.447Z,11.73
2019-03-29T14:47:43.496Z,14.47
2019-03-29T14:50:15.254Z,12.73
2019-03-29T14:52:45.367Z,11.90
2019-03-29T14:55:15.718Z,11.67
2019-03-29T14:57:46.337Z,10.87
2019-03-29T15:00:19.728Z,12.97
2019-03-29T15:02:50.636Z,14.13
2019-03-29T15:05:21.098Z,13.67
2019-03-29T15:07:51.087Z,11.37
2019-03-29T15:10:28.576Z,11.97
2019-03-29T15:12:59.734Z,14.67
2019-03-29T15:15:30.576Z,14.70
2019-03-29T15:18:00.259Z,14.53
2019-03-29T15:20:30.260Z,14.03
2019-03-29T15:23:02.889Z,13.60
2019-03-29T15:25:33.494Z,13.17
2019-03-29T15:28:05.008Z,13.00
2019-03-29T15:30:35.655Z,14.20
2019-03-29T15:33:08.481Z,14.07
2019-03-29T15:38:08.481Z,12.97
2019-03-29T15:45:43.857Z,15.65
2019-03-29T15:48:14.821Z,14.87
2019-03-29T15:50:45.072Z,15.97
2019-03-29T15:53:16.050Z,14.40
2019-03-29T15:55:46.071Z,14.97
2019-03-29T15:58:17.853Z,13.30
2019-03-29T16:00:48.054Z,15.30
2019-03-29T16:03:18.253Z,16.27
2019-03-29T16:05:48.642Z,13.73
2019-03-29T16:08:19.006Z,11.40
2019-03-29T16:10:48.929Z,13.73
2019-03-29T16:13:19.066Z,16.47
2019-03-29T16:15:49.957Z,14.50
2019-03-29T16:18:21.305Z,13.50
2019-03-29T16:20:52.133Z,14.27
2019-03-29T16:25:50.761Z,13.30
2019-03-29T16:28:21.583Z,14.25
2019-03-29T16:30:51.627Z,15.63
2019-03-29T16:33:21.658Z,14.87
2019-03-29T16:35:52.499Z,14.50
2019-03-29T16:38:23.958Z,14.60
2019-03-29T16:40:55.182Z,14.67
2019-03-29T16:43:25.198Z,15.90
2019-03-29T16:45:55.327Z,14.60
2019-03-29T16:48:25.741Z,12.07
2019-03-29T16:50:55.420Z,13.50
2019-03-29T16:53:25.748Z,13.60
2019-03-29T16:55:55.350Z,14.97
2019-03-29T16:58:25.109Z,14.53
2019-03-29T17:00:55.719Z,15.03
2019-03-29T17:03:25.813Z,13.47
2019-03-29T17:05:56.191Z,14.70
2019-03-29T17:08:27.236Z,15.48
2019-03-29T17:10:57.674Z,16.00
2019-03-29T17:13:27.839Z,15.65
2019-03-29T17:16:02.027Z,13.93
2019-03-29T17:18:32.219Z,14.75
2019-03-29T17:21:03.009Z,14.63
2019-03-29T17:23:33.493Z,13.60
2019-03-29T17:26:04.097Z,16.13
2019-03-29T17:28:35.320Z,16.37
2019-03-29T17:31:09.046Z,13.43
2019-03-29T17:41:08.350Z,15.10
2019-03-29T17:43:38.673Z,17.32
2019-03-29T17:46:16.756Z,16.62
2019-03-29T17:48:43.244Z,15.13
2019-03-29T17:51:13.204Z,15.63
2019-03-29T17:53:44.524Z,13.37
2019-03-29T17:56:16.868Z,14.90
2019-03-29T17:58:47.773Z,14.53
2019-03-29T18:01:18.414Z,15.00
2019-03-29T18:03:48.398Z,17.27
2019-03-29T18:06:19.604Z,17.35
2019-03-29T18:08:51.734Z,16.70
2019-03-29T18:11:22.418Z,17.15
2019-03-29T18:13:53.022Z,20.23
2019-03-29T18:16:30.485Z,16.95
2019-03-29T18:18:57.853Z,16.45
2019-03-29T18:21:28.090Z,17.55
2019-03-29T18:24:01.592Z,17.45
2019-03-29T18:26:39.494Z,16.85
2019-03-29T18:29:10.679Z,17.25
2019-03-29T18:31:41.523Z,17.23
2019-03-29T18:34:11.723Z,15.85
2019-03-29T18:36:43.901Z,17.02
2019-03-29T18:39:15.132Z,17.50
2019-03-29T18:41:46.173Z,20.25
2019-03-29T18:44:17.565Z,16.83
2019-03-29T18:46:47.734Z,18.85
2019-03-29T18:49:18.989Z,17.50
2019-03-29T18:51:48.854Z,17.62
2019-03-29T18:54:19.644Z,19.70
2019-03-29T18:56:50.733Z,18.40
2019-03-29T18:59:21.966Z,17.55
2019-03-29T19:01:52.771Z,19.07
2019-03-29T19:04:33.798Z,20.52
2019-03-29T19:07:05.364Z,18.62
2019-03-29T19:09:36.016Z,18.40
2019-03-29T19:12:06.202Z,18.53
2019-03-29T19:14:37.047Z,17.33
2019-03-29T19:17:15.149Z,19.42
2019-03-29T19:19:45.654Z,20.30
2019-03-29T19:22:18.294Z,17.90
2019-03-29T19:24:51.248Z,21.23
2019-03-29T19:27:21.841Z,18.87
2019-03-29T19:29:52.115Z,19.43
2019-03-29T19:32:22.900Z,21.17
2019-03-29T19:35:23.643Z,18.23
2019-03-29T19:37:53.235Z,16.43
2019-03-29T19:40:25.650Z,18.03
2019-03-29T19:42:55.655Z,18.27
2019-03-29T19:45:26.041Z,19.47
2019-03-29T19:47:56.080Z,15.43
2019-03-29T19:50:26.225Z,18.60
2019-03-29T19:52:56.181Z,19.23
2019-03-29T19:55:26.987Z,20.77
2019-03-29T20:08:30.500Z,18.07
2019-03-29T20:11:01.902Z,17.30
2019-03-29T20:13:31.589Z,19.93
2019-03-29T20:16:12.008Z,20.53
2019-03-29T20:18:42.563Z,21.03
2019-03-29T20:21:13.521Z,20.83
2019-03-29T20:23:43.594Z,19.97
2019-03-29T20:26:14.668Z,17.57
2019-03-29T20:28:46.355Z,17.80
2019-03-29T20:31:17.371Z,20.53
2019-03-29T20:33:47.443Z,18.23
2019-03-29T20:36:22.765Z,20.80
2019-03-29T20:38:50.128Z,20.87
2019-03-29T20:41:20.909Z,20.20
2019-03-29T20:43:51.196Z,18.83
2019-03-29T20:46:23.603Z,18.83
2019-03-29T20:48:53.828Z,20.13
2019-03-29T20:51:24.013Z,18.57
2019-03-29T20:53:54.195Z,19.37
2019-03-29T20:56:28.923Z,24.43
2019-03-29T20:58:59.617Z,21.03
2019-03-29T21:01:30.340Z,20.33
2019-03-29T21:04:03.101Z,21.93
2019-03-29T21:06:33.744Z,21.47
2019-03-29T21:09:04.035Z,21.60
2019-03-29T21:11:37.400Z,21.13
2019-03-29T21:14:07.536Z,22.27
2019-03-29T21:16:40.738Z,23.00
2019-03-29T21:21:40.809Z,24.25
2019-03-29T21:24:11.314Z,20.97
2019-03-29T21:26:42.420Z,19.53
2019-03-29T21:29:15.054Z,19.07
2019-03-29T21:41:51.297Z,21.03
2019-03-29T21:44:21.535Z,23.73
2019-03-29T21:46:51.736Z,19.30
2019-03-29T21:49:23.785Z,21.97
2019-03-29T21:51:56.399Z,21.68
2019-03-29T21:54:27.576Z,23.32
2019-03-29T21:56:59.225Z,18.20
2019-03-29T21:59:32.395Z,18.97
2019-03-29T22:02:03.394Z,19.17
2019-03-29T22:04:34.585Z,18.50
2019-03-29T22:07:04.679Z,20.73
2019-03-29T22:12:06.292Z,20.07
2019-03-29T22:14:37.475Z,21.47
2019-03-29T22:27:06.530Z,20.50
2019-03-29T22:29:40.609Z,18.07
2019-03-29T22:32:10.955Z,18.33
2019-03-29T22:34:42.688Z,17.57
2019-03-29T22:37:14.200Z,21.13
2019-03-29T22:39:44.699Z,18.90
2019-03-29T22:42:15.098Z,19.57
2019-03-29T22:44:44.814Z,20.50
2019-03-29T22:47:18.975Z,17.93
2019-03-29T22:49:49.922Z,20.88
2019-03-29T22:52:25.786Z,20.15
2019-03-29T22:59:56.563Z,21.90
2019-03-29T23:02:31.963Z,19.37
2019-03-29T23:05:01.911Z,18.83
2019-03-29T23:07:32.863Z,17.70
2019-03-29T23:10:04.317Z,20.43
2019-03-29T23:12:34.409Z,20.27
2019-03-29T23:15:06.292Z,20.67
2019-03-29T23:17:38.219Z,21.40
2019-03-29T23:20:08.413Z,18.53
2019-03-29T23:22:38.450Z,22.30
2019-03-29T23:25:08.574Z,28.63
2019-03-29T23:27:39.113Z,18.30
2019-03-29T23:30:11.621Z,19.13
2019-03-29T23:32:45.474Z,20.13
2019-03-29T23:35:15.568Z,19.33
2019-03-29T23:37:45.458Z,20.17
2019-03-29T23:40:16.269Z,17.40
2019-03-29T23:42:47.306Z,21.63
2019-03-29T23:45:18.267Z,21.07
2019-03-29T23:47:49.729Z,18.70
2019-03-29T23:50:19.750Z,20.33
2019-03-29T23:52:49.960Z,19.07
2019-03-29T23:55:19.971Z,17.40
2019-03-29T23:57:50.279Z,20.10
